Datto, AR

4:26 PM CST on December 27, 2014 (GMT -0600)
Biggers | Change Station
CLOSE
Current Station
Personal Weather Station
Location: Biggers, AR
Elevation: 285 ft
Nearby Weather Stations

Elev 285 ft 36.33 °N, 90.81 °W | Updated 44 seconds ago

Rain
Rain
45.7 °F
Feels Like 42 °F
N
6.8
Wind Variable Wind from WNW

Today
High -- | Low -- °F
--% Chance of Precip.
Yesterday
High -- | Low -- °F
Precip. -- in
7:13 AM 4:54 PM
Waxing Crescent, 40% visible
Pressure 30.12 in
Visibility 10.0 miles
Clouds Scattered Clouds 3800 ft
Windchill 42 °F
Dew Point 45 °F
Humidity 98%
Rainfall 0.00 in
Snow Depth Not available.
UV 0 out of 12
Pollen .80 out of 12
Air Quality Not available.
Flu Activity Not available.
METAR K4M9 272215Z AUTO 33010KT 10SM SCT038 09/08 A3012 RMK AO2

More Conditions Fewer Conditions

Pressure 30.12 in
Visibility 10.0 miles
Clouds Scattered Clouds 3800 ft
Windchill 42 °F
Dew Point 45 °F
Humidity 98%
Rainfall 0.00 in
Snow Depth Not available.
UV 0 out of 12
Pollen .80 out of 12
Air Quality Not available.
Flu Activity Not available.
METAR K4M9 272215Z AUTO 33010KT 10SM SCT038 09/08 A3012 RMK AO2

More Conditions Fewer Conditions

10-Day Weather Forecast

Almanac

Astronomy

Dec. 27, 2014 Rise Set
Actual Time
Civil Twilight
Nautical Twilight
Astronomical Twilight
Moon
Length of Visible Light
Length of Day
Tomorrow will be .
, % of the Moon is Illuminated

Today's Extremes

State Highs State Lows

Community

WunderPhotos

Upload Photos

1,781,089 photos uploaded!

WunderBlogs® & News

Nearby

Air Quality

  Air Quality AQ Index Pollutant
Not available.

Snow Depth

Station Depth Elevation

Earthquake Activity

City Distance Mag. Time & Date
Minimum magnitude displayed is 2.5.

Coastal Water Temperatures

Place Temperature

Nearby Weather Stations